East Akron, Ohio
Current Conditions -  °F | °C
As of 6:54 PM on Sunday 23 Nov 2014 (Local Time) from KAKR Reporting Station
Scattered Clouds Scattered Clouds  
Wind Chill: 58°   Ceiling: Unl
Heat Index: 58°   Visibility: 10mi
Dew Point: 45°   Wind: 6mph
Humidity: 62%   Direction: NA
Pressure: 29.64"   Gusts: NA
Location:  41.0762°N, 81.4631°W
Report Text: KAKR 232354Z AUTO VRB05KT 10SM FEW100 SCT120 14/07 A2964 RMK AO2 SLP037 T01440072 10156 20133 58047
Loading
Personal Weather Stations






























Interactive Weather Map New forecast layout! Learn more

10-Day Weather Forecast

Advertisements
Track Severe Weather on mobile